Time;durP1;ratioP1;P1;durP2;ratioP2;P2;SDS_P1;SDS_P2;PMS_P1;PMS_P2;Temp;Humidity;BMP_temperature;BMP_pressure;BME280_temperature;BME280_humidity;BME280_pressure;Samples;Min_cycle;Max_cycle;Signal;HPM_P1;HPM_P2
2022/06/29 08:08:17;;;;;;;3.38;3.10;;;20.70;99.90;;;;;;5070586;28;20545;-78
2022/06/29 08:10:42;;;;;;;2.80;2.50;;;20.60;99.90;;;;;;5070565;28;20255;-76
2022/06/29 08:13:08;;;;;;;3.58;2.70;;;20.60;99.90;;;;;;5070487;28;20279;-76
2022/06/29 08:15:34;;;;;;;2.80;2.70;;;20.50;99.90;;;;;;5070502;28;20175;-76
2022/06/29 08:18:00;;;;;;;2.88;2.60;;;20.60;99.90;;;;;;5069109;28;20235;-76
2022/06/29 08:20:28;;;;;;;2.88;2.72;;;20.80;99.90;;;;;;5070383;28;20598;-76
2022/06/29 08:22:54;;;;;;;3.25;3.08;;;20.90;99.90;;;;;;5070367;28;20164;-77
2022/06/29 08:25:19;;;;;;;2.72;2.63;;;20.90;99.90;;;;;;5070243;28;20195;-77
2022/06/29 08:27:52;;;;;;;3.10;2.90;;;20.90;99.90;;;;;;5070141;28;20607;-77
2022/06/29 08:30:17;;;;;;;3.85;3.20;;;21.00;99.90;;;;;;5070170;28;20251;-77
2022/06/29 08:32:44;;;;;;;6.13;3.95;;;21.00;99.90;;;;;;5070129;28;20192;-77
2022/06/29 08:35:14;;;;;;;10.35;3.53;;;21.00;99.90;;;;;;5070091;28;20196;-77
2022/06/29 08:37:40;;;;;;;6.50;3.83;;;21.00;99.90;;;;;;5069929;28;20164;-77
2022/06/29 08:40:08;;;;;;;3.13;2.83;;;20.90;99.90;;;;;;5070003;28;20175;-77
2022/06/29 08:42:36;;;;;;;4.85;2.92;;;20.90;99.90;;;;;;5069880;28;20175;-76
2022/06/29 08:45:03;;;;;;;3.58;3.28;;;20.80;99.90;;;;;;5069860;28;20518;-77
2022/06/29 08:47:28;;;;;;;3.00;2.80;;;20.80;99.90;;;;;;5069776;28;20206;-77
2022/06/29 08:49:55;;;;;;;2.97;2.78;;;20.80;99.90;;;;;;5069902;28;20168;-76
2022/06/29 08:52:23;;;;;;;3.42;2.83;;;20.70;99.90;;;;;;5069873;28;20169;-76
2022/06/29 08:54:52;;;;;;;4.55;3.05;;;20.70;99.90;;;;;;5069682;28;20228;-76
2022/06/29 08:57:18;;;;;;;3.47;3.25;;;20.70;99.90;;;;;;5069800;28;20180;-77
2022/06/29 08:59:44;;;;;;;6.55;2.85;;;20.60;99.90;;;;;;5068409;28;20267;-77
2022/06/29 09:02:11;;;;;;;4.25;2.92;;;20.80;99.90;;;;;;5069686;28;20171;-76
2022/06/29 09:04:37;;;;;;;3.17;2.90;;;20.90;99.90;;;;;;5069574;28;20202;-77
2022/06/29 09:07:03;;;;;;;3.13;2.88;;;20.80;99.90;;;;;;5067950;28;20803;-76
2022/06/29 09:09:29;;;;;;;4.03;3.40;;;20.90;99.90;;;;;;5069492;28;20176;-77
2022/06/29 09:11:55;;;;;;;6.32;3.13;;;20.90;99.90;;;;;;5069392;28;20187;-77
2022/06/29 09:14:24;;;;;;;3.63;3.30;;;21.00;99.90;;;;;;5068144;28;20180;-77
2022/06/29 09:16:53;;;;;;;3.58;3.25;;;21.00;99.90;;;;;;5068102;28;20267;-77
2022/06/29 09:19:42;;;;;;;3.00;2.90;;;21.00;99.90;;;;;;5057875;28;20207;-77
2022/06/29 09:22:08;;;;;;;3.15;2.75;;;21.00;99.90;;;;;;5055797;28;20188;-77
2022/06/29 09:24:34;;;;;;;4.13;2.85;;;21.00;99.90;;;;;;5056053;28;20237;-77
2022/06/29 09:27:11;;;;;;;9.30;8.15;;;21.10;99.90;;;;;;5055861;28;20221;-77
2022/06/29 09:29:41;;;;;;;5.07;4.40;;;21.10;99.90;;;;;;5054666;28;20164;-77
2022/06/29 09:32:08;;;;;;;8.10;7.47;;;21.10;99.90;;;;;;5055947;28;20637;-77
2022/06/29 09:34:35;;;;;;;3.92;3.63;;;21.10;99.90;;;;;;5054558;28;20194;-77
2022/06/29 09:37:02;;;;;;;3.47;3.20;;;21.10;99.90;;;;;;5055743;28;20230;-77
2022/06/29 09:39:51;;;;;;;3.80;3.50;;;21.20;99.90;;;;;;5055652;28;20168;-77
2022/06/29 09:42:18;;;;;;;3.95;3.55;;;21.20;99.90;;;;;;5054363;28;20173;-77
2022/06/29 09:44:45;;;;;;;3.33;3.03;;;21.20;99.90;;;;;;5055676;28;20183;-77
2022/06/29 09:47:15;;;;;;;3.83;3.53;;;21.30;99.90;;;;;;5055576;28;20224;-77
2022/06/29 09:49:43;;;;;;;2.80;2.70;;;21.30;99.90;;;;;;5055575;28;20161;-77
2022/06/29 09:52:09;;;;;;;3.35;3.15;;;21.30;99.90;;;;;;5055504;28;20638;-77
2022/06/29 09:54:52;;;;;;;3.30;3.17;;;21.40;99.90;;;;;;5054051;28;20193;-77
2022/06/29 09:57:21;;;;;;;3.47;3.20;;;21.40;99.90;;;;;;5055375;28;20181;-77
2022/06/29 10:02:44;;;;;;;5.75;3.13;;;21.40;99.90;;;;;;5055338;28;20179;-77
2022/06/29 10:05:20;;;;;;;4.82;3.72;;;21.40;99.90;;;;;;5055679;28;20630;-77
2022/06/29 10:07:53;;;;;;;3.72;3.42;;;21.50;99.90;;;;;;5054982;28;20231;-77
2022/06/29 10:10:20;;;;;;;5.32;3.22;;;21.50;99.90;;;;;;5055214;28;20196;-77
2022/06/29 10:16:00;;;;;;;4.72;3.42;;;21.50;99.90;;;;;;5055021;28;20175;-77
2022/06/29 10:18:50;;;;;;;4.30;3.47;;;21.40;99.90;;;;;;5054958;28;20168;-77
2022/06/29 10:21:27;;;;;;;3.92;3.60;;;21.40;99.90;;;;;;5054953;28;20707;-77
2022/06/29 10:23:59;;;;;;;3.40;3.05;;;21.50;99.90;;;;;;5054860;28;20521;-77
2022/06/29 10:29:06;;;;;;;3.40;3.20;;;21.90;99.90;;;;;;5055050;28;20203;-77
2022/06/29 10:31:50;;;;;;;3.40;3.20;;;22.20;99.90;;;;;;5053990;28;20164;-77
2022/06/29 10:34:31;;;;;;;3.15;3.05;;;22.60;99.90;;;;;;5054598;28;20160;-77
2022/06/29 10:37:07;;;;;;;3.47;3.17;;;23.00;99.90;;;;;;5054594;28;20168;-77
2022/06/29 10:39:44;;;;;;;3.30;3.10;;;23.30;99.90;;;;;;5054514;28;20633;-77
2022/06/29 10:45:15;;;;;;;3.30;3.03;;;23.80;99.90;;;;;;5054510;28;20179;-77
2022/06/29 10:47:48;;;;;;;3.22;3.03;;;24.00;99.90;;;;;;5054355;28;20192;-77
2022/06/29 10:50:13;;;;;;;3.45;3.15;;;24.10;99.90;;;;;;5054338;28;20645;-77
2022/06/29 10:52:40;;;;;;;2.95;2.85;;;24.10;99.90;;;;;;5054300;28;20168;-77
2022/06/29 10:55:06;;;;;;;3.25;3.03;;;24.20;99.90;;;;;;5054045;28;20215;-77
2022/06/29 10:57:36;;;;;;;3.47;3.28;;;24.30;99.90;;;;;;5054377;28;20176;-77
2022/06/29 11:00:09;;;;;;;3.20;2.90;;;24.40;99.90;;;;;;5054162;28;20176;-76
2022/06/29 11:02:36;;;;;;;3.80;3.50;;;24.50;99.90;;;;;;5054167;28;20247;-77
2022/06/29 11:05:02;;;;;;;4.47;3.45;;;24.60;99.90;;;;;;5054064;28;20731;-77
2022/06/29 11:12:57;;;;;;;2.92;2.70;;;24.80;99.90;;;;;;5054283;28;20171;-77
2022/06/29 11:15:41;;;;;;;3.38;3.08;;;24.90;99.90;;;;;;5052574;28;20173;-77
2022/06/29 11:18:31;;;;;;;3.35;3.10;;;24.80;99.90;;;;;;5052538;28;20180;-77
2022/06/29 11:21:05;;;;;;;4.53;3.30;;;24.80;99.90;;;;;;5053401;28;20184;-77
2022/06/29 11:23:33;;;;;;;3.60;3.20;;;24.70;99.90;;;;;;5053775;28;20218;-77
2022/06/29 11:25:59;;;;;;;4.30;3.40;;;24.60;99.90;;;;;;5052286;28;20168;-77
2022/06/29 11:28:30;;;;;;;4.18;3.83;;;24.50;99.90;;;;;;5053600;28;20247;-77
2022/06/29 11:31:10;;;;;;;3.35;3.05;;;24.50;99.90;;;;;;5053599;28;20222;-77
2022/06/29 11:33:40;;;;;;;5.65;3.42;;;24.30;99.90;;;;;;5053529;28;20176;-77
2022/06/29 11:36:09;;;;;;;4.05;3.60;;;24.20;99.90;;;;;;5052293;28;20168;-77
2022/06/29 11:38:40;;;;;;;4.43;3.30;;;24.00;99.90;;;;;;5053532;28;20200;-77
2022/06/29 11:41:10;;;;;;;4.32;3.40;;;24.00;99.90;;;;;;5053268;28;20661;-77
2022/06/29 11:43:36;;;;;;;3.88;3.63;;;23.90;99.90;;;;;;5053512;28;20629;-77
2022/06/29 11:46:01;;;;;;;5.97;4.00;;;23.90;99.90;;;;;;5053254;28;20255;-77
2022/06/29 11:48:29;;;;;;;5.03;4.00;;;23.80;99.90;;;;;;5053394;28;20165;-77
2022/06/29 11:50:57;;;;;;;3.92;3.72;;;23.90;99.90;;;;;;5053274;28;20172;-77
2022/06/29 11:53:54;;;;;;;6.75;3.45;;;23.90;99.90;;;;;;5051987;28;20618;-77
2022/06/29 11:56:27;;;;;;;3.63;3.20;;;24.00;99.90;;;;;;5053318;28;20180;-77
2022/06/29 11:58:56;;;;;;;3.80;3.67;;;23.90;99.90;;;;;;5053226;28;20214;-77
2022/06/29 12:01:24;;;;;;;4.05;3.85;;;23.70;99.90;;;;;;5053105;28;20176;-77
2022/06/29 12:03:54;;;;;;;4.85;3.80;;;23.60;99.90;;;;;;5053132;28;20696;-77
2022/06/29 12:06:23;;;;;;;3.83;3.63;;;23.40;99.90;;;;;;5052965;28;20651;-77
2022/06/29 12:08:49;;;;;;;4.53;4.22;;;23.30;99.90;;;;;;5051953;28;20226;-77
2022/06/29 12:11:15;;;;;;;3.70;3.50;;;23.30;99.90;;;;;;5053182;28;20255;-77
2022/06/29 12:13:42;;;;;;;4.65;4.05;;;23.30;99.90;;;;;;5051886;28;20263;-77
2022/06/29 12:16:11;;;;;;;3.95;3.75;;;23.50;99.90;;;;;;5053088;28;20157;-77
2022/06/29 12:18:37;;;;;;;3.70;3.50;;;23.60;99.90;;;;;;5053039;28;20579;-77
2022/06/29 12:21:03;;;;;;;4.10;3.70;;;23.90;99.90;;;;;;5053032;28;20251;-77
2022/06/29 12:23:28;;;;;;;4.88;3.72;;;24.20;99.90;;;;;;5053041;28;20272;-78
2022/06/29 12:25:57;;;;;;;3.97;3.78;;;24.60;99.90;;;;;;5053025;28;20164;-78
2022/06/29 12:28:23;;;;;;;3.78;3.58;;;24.70;99.90;;;;;;5053003;28;20176;-78
2022/06/29 12:30:49;;;;;;;4.13;3.53;;;24.90;99.90;;;;;;5052867;28;20168;-78
2022/06/29 12:33:14;;;;;;;3.72;3.42;;;25.00;99.90;;;;;;5051621;28;20177;-78
2022/06/29 12:35:40;;;;;;;3.75;3.50;;;25.00;99.90;;;;;;5052982;28;20215;-78
2022/06/29 12:38:05;;;;;;;4.07;3.78;;;25.10;99.90;;;;;;5052894;28;20187;-78
2022/06/29 12:40:32;;;;;;;4.22;3.92;;;25.20;99.90;;;;;;5052887;28;20161;-79
2022/06/29 12:42:58;;;;;;;6.72;4.22;;;25.50;99.90;;;;;;5052779;28;20165;-78
2022/06/29 12:45:24;;;;;;;5.10;3.53;;;25.80;99.90;;;;;;5052763;28;20156;-78
2022/06/29 12:47:50;;;;;;;3.88;3.35;;;26.10;99.90;;;;;;5051447;28;20231;-78
2022/06/29 12:50:17;;;;;;;4.25;4.05;;;26.10;99.90;;;;;;5052784;28;20164;-78
2022/06/29 12:52:46;;;;;;;3.90;3.60;;;26.40;99.90;;;;;;5051468;28;20618;-78
2022/06/29 12:55:16;;;;;;;3.67;3.47;;;26.60;99.90;;;;;;5056427;28;20199;-78
2022/06/29 12:57:42;;;;;;;6.18;3.83;;;26.70;99.90;;;;;;5056463;28;20169;-78
2022/06/29 13:00:09;;;;;;;4.18;3.47;;;26.70;99.90;;;;;;5056483;28;20641;-78
2022/06/29 13:02:35;;;;;;;3.80;3.50;;;26.50;99.90;;;;;;5056319;28;20621;-78
2022/06/29 13:05:01;;;;;;;3.53;3.33;;;26.40;99.90;;;;;;5056389;28;20171;-78
2022/06/29 13:07:26;;;;;;;3.63;3.42;;;26.50;99.90;;;;;;5056057;28;20269;-78
2022/06/29 13:09:53;;;;;;;4.97;4.13;;;26.70;99.90;;;;;;5056257;28;20199;-78
2022/06/29 13:12:19;;;;;;;3.60;3.30;;;27.10;99.90;;;;;;5054922;28;20661;-78
2022/06/29 13:14:45;;;;;;;7.85;3.83;;;27.30;99.90;;;;;;5054891;28;20213;-78
2022/06/29 13:17:11;;;;;;;3.50;3.20;;;27.50;99.90;;;;;;5056125;28;20247;-78
2022/06/29 13:19:36;;;;;;;3.40;3.30;;;27.80;99.90;;;;;;5056102;28;20173;-78
2022/06/29 13:22:02;;;;;;;3.42;3.20;;;27.90;99.90;;;;;;5054864;28;20552;-78
2022/06/29 13:24:28;;;;;;;4.10;2.88;;;28.30;99.90;;;;;;5055984;28;20230;-77
2022/06/29 13:26:54;;;;;;;5.32;2.80;;;28.60;99.90;;;;;;5055895;28;20192;-77
2022/06/29 13:29:21;;;;;;;2.50;2.40;;;28.80;99.90;;;;;;5055934;28;20642;-77
2022/06/29 13:31:46;;;;;;;4.22;3.00;;;28.70;99.90;;;;;;5054626;28;20180;-78
2022/06/29 13:34:12;;;;;;;2.60;2.50;;;28.70;99.90;;;;;;5055900;28;20497;-78
2022/06/29 13:36:38;;;;;;;2.95;2.60;;;28.90;99.90;;;;;;5054491;28;20207;-78
2022/06/29 13:39:04;;;;;;;3.78;2.65;;;29.10;99.90;;;;;;5054483;28;20172;-78
2022/06/29 13:41:31;;;;;;;5.45;3.38;;;29.20;99.90;;;;;;5054401;28;20202;-78
2022/06/29 13:43:57;;;;;;;3.10;2.90;;;29.20;99.90;;;;;;5055627;28;20176;-78
2022/06/29 13:46:22;;;;;;;2.72;2.63;;;29.30;99.90;;;;;;5055481;28;20184;-78
2022/06/29 13:48:48;;;;;;;2.60;2.47;;;29.20;99.90;;;;;;5055556;28;20164;-78
2022/06/29 13:51:13;;;;;;;2.28;2.17;;;29.10;99.90;;;;;;5054225;28;20257;-78
2022/06/29 13:53:39;;;;;;;3.25;2.78;;;29.00;99.90;;;;;;5055429;28;20179;-78
2022/06/29 13:56:05;;;;;;;3.10;2.70;;;28.90;99.90;;;;;;5054252;28;20168;-78
2022/06/29 13:58:32;;;;;;;2.70;2.60;;;28.90;99.90;;;;;;5055421;28;20164;-78
2022/06/29 14:00:57;;;;;;;2.92;2.72;;;29.00;99.90;;;;;;5054076;28;20175;-78
2022/06/29 14:03:23;;;;;;;5.13;2.72;;;29.20;99.90;;;;;;5054048;28;20545;-78
2022/06/29 14:05:51;;;;;;;4.25;3.22;;;29.40;99.90;;;;;;5055129;28;20180;-78
2022/06/29 14:08:17;;;;;;;2.95;2.63;;;29.40;99.90;;;;;;5055131;28;20215;-78
2022/06/29 14:10:42;;;;;;;4.88;3.25;;;29.60;99.90;;;;;;5055133;28;20590;-78
2022/06/29 14:13:08;;;;;;;3.08;2.97;;;29.60;99.90;;;;;;5054984;28;20244;-78
2022/06/29 14:15:34;;;;;;;3.05;2.85;;;29.80;99.90;;;;;;5054967;28;20530;-78
2022/06/29 14:17:59;;;;;;;2.63;2.53;;;30.00;99.90;;;;;;5054960;28;20534;-78
2022/06/29 14:20:25;;;;;;;5.28;3.35;;;30.30;99.90;;;;;;5053809;28;20582;-78
2022/06/29 14:22:51;;;;;;;2.97;2.70;;;30.40;99.90;;;;;;5054745;28;20180;-79
2022/06/29 14:25:16;;;;;;;3.95;3.10;;;30.40;99.90;;;;;;5054892;28;20169;-79
2022/06/29 14:27:42;;;;;;;3.47;3.17;;;30.60;99.90;;;;;;5053456;28;20223;-79
2022/06/29 14:30:08;;;;;;;3.10;3.00;;;30.80;99.90;;;;;;5054807;28;20640;-79
2022/06/29 14:32:34;;;;;;;3.58;3.30;;;30.70;99.90;;;;;;5054575;28;20627;-79
2022/06/29 14:34:59;;;;;;;3.47;3.17;;;30.60;99.90;;;;;;5054669;28;20169;-79
2022/06/29 14:37:25;;;;;;;4.00;3.53;;;30.60;99.90;;;;;;5054642;28;20177;-78
2022/06/29 14:39:51;;;;;;;3.20;3.10;;;30.90;99.90;;;;;;5054573;28;20181;-78
2022/06/29 14:42:19;;;;;;;5.60;3.60;;;31.30;99.90;;;;;;5053239;28;20226;-78
2022/06/29 14:44:44;;;;;;;4.10;3.75;;;31.40;99.90;;;;;;5054429;28;20259;-78
2022/06/29 14:47:10;;;;;;;4.25;4.05;;;31.50;99.90;;;;;;5054362;28;20284;-79
2022/06/29 14:49:36;;;;;;;4.15;3.75;;;31.80;99.90;;;;;;5053119;28;20200;-79
2022/06/29 14:52:01;;;;;;;3.88;3.58;;;32.20;99.90;;;;;;5054399;28;20165;-78
2022/06/29 14:54:27;;;;;;;3.70;3.50;;;32.20;99.90;;;;;;5054307;28;20189;-79
2022/06/29 14:56:53;;;;;;;3.70;3.50;;;31.60;99.90;;;;;;5054121;28;20199;-78
2022/06/29 14:59:18;;;;;;;4.55;4.22;;;31.30;99.90;;;;;;5054279;28;20172;-79
2022/06/29 15:01:44;;;;;;;4.70;4.38;;;31.10;99.90;;;;;;5054214;28;20171;-79
2022/06/29 15:04:10;;;;;;;4.50;4.20;;;30.90;99.90;;;;;;5054148;28;20251;-79
2022/06/29 15:06:36;;;;;;;4.32;4.13;;;30.70;99.90;;;;;;5053905;28;20293;-79
2022/06/29 15:09:02;;;;;;;4.72;4.00;;;30.30;99.90;;;;;;5052873;28;20215;-79
2022/06/29 15:11:28;;;;;;;4.30;4.07;;;30.00;99.90;;;;;;5053969;28;20172;-79
2022/06/29 15:13:54;;;;;;;4.78;4.47;;;29.80;99.90;;;;;;5053925;28;20247;-79
2022/06/29 15:16:20;;;;;;;5.10;4.80;;;29.50;99.90;;;;;;5053369;28;20248;-79
2022/06/29 15:18:46;;;;;;;4.78;4.47;;;29.30;99.90;;;;;;5053899;28;20644;-79
2022/06/29 15:21:12;;;;;;;4.90;4.50;;;29.10;99.90;;;;;;5053869;28;20168;-79
2022/06/29 15:23:37;;;;;;;5.05;4.68;;;29.00;99.90;;;;;;5052549;28;20169;-79
2022/06/29 15:26:03;;;;;;;4.20;4.00;;;28.90;99.90;;;;;;5052416;28;20203;-79
2022/06/29 15:28:28;;;;;;;5.03;4.70;;;28.90;99.90;;;;;;5053918;28;20183;-79
2022/06/29 15:30:54;;;;;;;4.38;4.18;;;28.80;99.90;;;;;;5053726;28;20169;-79
2022/06/29 15:38:48;;;;;;;3.60;3.50;;;29.80;99.90;;;;;;5053901;28;20531;-79
2022/06/29 15:41:14;;;;;;;4.30;4.00;;;30.30;99.90;;;;;;5053559;28;20164;-79
2022/06/29 15:43:39;;;;;;;3.88;3.63;;;30.30;99.90;;;;;;5053431;28;20703;-79
2022/06/29 15:46:05;;;;;;;4.22;4.03;;;30.10;99.90;;;;;;5053343;28;20267;-79
2022/06/29 15:48:31;;;;;;;4.53;4.32;;;29.80;99.90;;;;;;5053393;28;20283;-79
2022/06/29 15:50:56;;;;;;;3.88;3.70;;;29.50;99.90;;;;;;5053294;28;20172;-79
2022/06/29 15:56:06;;;;;;;4.30;4.10;;;29.00;99.90;;;;;;5053221;28;20195;-79
2022/06/29 15:58:32;;;;;;;4.53;4.22;;;28.70;99.90;;;;;;5053229;28;20617;-79
2022/06/29 16:00:57;;;;;;;4.45;4.13;;;28.50;99.90;;;;;;5053261;28;20207;-79
2022/06/29 16:03:23;;;;;;;4.75;4.32;;;28.40;99.90;;;;;;5051908;28;20171;-79
2022/06/29 16:05:48;;;;;;;4.47;4.20;;;28.40;99.90;;;;;;5053135;28;20234;-79
2022/06/29 16:08:14;;;;;;;3.97;3.67;;;28.50;99.90;;;;;;5053205;28;20188;-79
2022/06/29 16:10:40;;;;;;;4.63;4.28;;;28.60;99.90;;;;;;5053201;28;20166;-79
2022/06/29 16:13:06;;;;;;;4.50;4.10;;;28.60;99.90;;;;;;5051835;28;20177;-79
2022/06/29 16:15:31;;;;;;;4.75;4.40;;;28.80;99.90;;;;;;5051855;28;20234;-79
2022/06/29 16:17:57;;;;;;;4.55;4.10;;;29.00;99.90;;;;;;5052977;28;20282;-79
2022/06/29 16:20:22;;;;;;;4.75;4.20;;;28.90;99.90;;;;;;5051804;28;20259;-79
2022/06/29 16:22:48;;;;;;;4.18;3.80;;;28.90;99.90;;;;;;5052965;28;20164;-79
2022/06/29 16:25:14;;;;;;;4.60;4.20;;;28.70;99.90;;;;;;5053011;28;20572;-79
2022/06/29 16:27:39;;;;;;;4.30;4.00;;;28.40;99.90;;;;;;5051731;28;20176;-79
2022/06/29 16:30:05;;;;;;;4.20;4.00;;;28.30;99.90;;;;;;5055598;28;20180;-79
2022/06/29 16:32:31;;;;;;;4.53;4.03;;;28.50;99.90;;;;;;5056975;28;20234;-79
2022/06/29 16:34:57;;;;;;;4.47;4.18;;;28.40;99.90;;;;;;5056951;28;20177;-79
2022/06/29 16:37:23;;;;;;;5.30;4.15;;;28.40;99.90;;;;;;5056837;28;20207;-79
2022/06/29 16:39:49;;;;;;;4.70;4.38;;;28.60;99.90;;;;;;5056900;28;20171;-79
2022/06/29 16:42:14;;;;;;;4.18;3.78;;;28.80;99.90;;;;;;5055500;28;20177;-79
2022/06/29 16:44:40;;;;;;;3.90;3.70;;;29.00;99.90;;;;;;5056806;28;20226;-79
2022/06/29 16:47:06;;;;;;;4.18;3.78;;;28.90;99.90;;;;;;5056718;28;20177;-79
2022/06/29 16:49:31;;;;;;;5.05;4.18;;;28.90;99.90;;;;;;5056638;28;20516;-79
2022/06/29 16:51:57;;;;;;;4.38;4.07;;;29.50;99.90;;;;;;5056705;28;20169;-78
2022/06/29 16:54:23;;;;;;;4.70;4.22;;;29.90;99.90;;;;;;5056564;28;20189;-78
2022/06/29 16:56:48;;;;;;;7.35;3.75;;;30.60;99.90;;;;;;5056516;28;20378;-78
2022/06/29 16:59:14;;;;;;;3.90;3.67;;;31.10;99.90;;;;;;5056702;28;20173;-78
2022/06/29 17:01:40;;;;;;;12.52;4.25;;;31.40;99.90;;;;;;5056433;28;20168;-78
2022/06/29 17:04:06;;;;;;;7.03;4.47;;;31.00;99.90;;;;;;5056444;28;20255;-79
2022/06/29 17:06:32;;;;;;;3.83;3.60;;;30.30;99.90;;;;;;5056128;28;20224;-78
2022/06/29 17:08:57;;;;;;;4.10;3.90;;;29.70;99.90;;;;;;5056351;28;20172;-78
2022/06/29 17:11:23;;;;;;;6.78;4.05;;;29.50;99.90;;;;;;5055005;28;20211;-78
2022/06/29 17:13:49;;;;;;;4.85;4.55;;;29.20;99.90;;;;;;5056344;28;20176;-78
2022/06/29 17:16:14;;;;;;;4.57;4.28;;;29.00;99.90;;;;;;5054766;28;20630;-78
2022/06/29 17:18:40;;;;;;;4.97;4.47;;;29.30;99.90;;;;;;5056200;28;20172;-79
2022/06/29 17:21:05;;;;;;;5.10;4.80;;;29.80;99.90;;;;;;5056077;28;20207;-78
2022/06/29 17:23:31;;;;;;;4.18;3.83;;;30.10;99.90;;;;;;5056091;28;20196;-79
2022/06/29 17:25:57;;;;;;;4.60;3.92;;;30.50;99.90;;;;;;5056049;28;20222;-79
2022/06/29 17:28:23;;;;;;;3.65;3.45;;;30.50;99.90;;;;;;5055993;28;20204;-79
2022/06/29 17:30:49;;;;;;;3.97;3.67;;;30.50;99.90;;;;;;5055896;28;20177;-79
2022/06/29 17:33:14;;;;;;;4.55;4.03;;;30.60;99.90;;;;;;5055935;28;20172;-79
2022/06/29 17:35:40;;;;;;;4.53;4.13;;;30.90;99.90;;;;;;5055897;28;20567;-79
2022/06/29 17:38:05;;;;;;;5.53;3.80;;;31.00;99.90;;;;;;5055731;28;20664;-79
2022/06/29 17:40:31;;;;;;;3.85;3.65;;;31.20;99.90;;;;;;5055250;28;20168;-79
2022/06/29 17:42:57;;;;;;;4.68;4.03;;;31.20;99.90;;;;;;5055760;28;20168;-79
2022/06/29 17:45:23;;;;;;;4.25;4.05;;;31.40;99.90;;;;;;5055649;28;20236;-79
2022/06/29 17:47:48;;;;;;;4.28;4.07;;;31.40;99.90;;;;;;5055624;28;20525;-79
2022/06/29 17:50:14;;;;;;;4.32;3.92;;;31.40;99.90;;;;;;5055555;28;20172;-79
2022/06/29 17:52:40;;;;;;;4.32;3.90;;;31.20;99.90;;;;;;5055499;28;20172;-79
2022/06/29 17:55:06;;;;;;;4.80;4.30;;;31.10;99.90;;;;;;5055440;28;20196;-79
2022/06/29 17:57:31;;;;;;;4.15;3.95;;;31.10;99.90;;;;;;5055380;28;20246;-79
2022/06/29 17:59:57;;;;;;;3.97;3.78;;;30.90;99.90;;;;;;5055319;28;20164;-79
2022/06/29 18:02:23;;;;;;;3.85;3.63;;;30.80;99.90;;;;;;5055363;28;20637;-79
2022/06/29 18:04:50;;;;;;;6.60;3.90;;;30.80;99.90;;;;;;5055331;28;20251;-79
2022/06/29 18:07:16;;;;;;;4.45;4.13;;;30.80;99.90;;;;;;5055056;28;20749;-79
2022/06/29 18:09:43;;;;;;;5.20;4.80;;;30.90;99.90;;;;;;5055239;28;20260;-79
2022/06/29 18:12:09;;;;;;;4.40;4.10;;;30.90;99.90;;;;;;5053879;28;20178;-79
2022/06/29 18:14:34;;;;;;;4.70;3.80;;;30.80;99.90;;;;;;5055074;28;20565;-79
2022/06/29 18:17:00;;;;;;;3.88;3.63;;;30.60;99.90;;;;;;5054859;28;20223;-79
2022/06/29 18:19:26;;;;;;;4.38;4.07;;;30.40;99.90;;;;;;5053665;28;20165;-79
2022/06/29 18:21:51;;;;;;;4.88;4.40;;;30.40;99.90;;;;;;5054991;28;20252;-79
2022/06/29 18:24:17;;;;;;;4.75;4.55;;;30.30;99.90;;;;;;5054948;28;20318;-79
2022/06/29 18:26:43;;;;;;;4.72;4.50;;;30.10;99.90;;;;;;5054913;28;20192;-79
2022/06/29 18:29:08;;;;;;;5.68;5.32;;;30.00;99.90;;;;;;5054828;28;20249;-79
2022/06/29 18:31:34;;;;;;;4.43;4.20;;;30.00;99.90;;;;;;5054703;28;20259;-79
2022/06/29 18:34:00;;;;;;;5.32;4.93;;;30.10;99.90;;;;;;5054812;28;20190;-79
2022/06/29 18:36:27;;;;;;;5.05;4.50;;;30.00;99.90;;;;;;5054647;28;20272;-79
2022/06/29 18:38:53;;;;;;;5.22;4.82;;;30.10;99.90;;;;;;5054723;28;20168;-79
2022/06/29 18:41:19;;;;;;;5.45;5.25;;;30.20;99.90;;;;;;5054679;28;20169;-79
2022/06/29 18:43:44;;;;;;;5.75;5.25;;;30.10;99.90;;;;;;5053361;28;20219;-79
2022/06/29 18:46:10;;;;;;;5.25;5.05;;;29.90;99.90;;;;;;5054561;28;20172;-79
2022/06/29 18:48:35;;;;;;;5.45;5.15;;;29.90;99.90;;;;;;5053207;28;20563;-79
2022/06/29 18:51:01;;;;;;;7.20;4.88;;;29.70;99.90;;;;;;5053586;28;20187;-79
2022/06/29 18:53:27;;;;;;;5.50;5.20;;;29.50;99.90;;;;;;5053189;28;20259;-79
2022/06/29 18:55:53;;;;;;;6.38;5.97;;;29.20;99.90;;;;;;5054175;28;20740;-79
2022/06/29 18:58:19;;;;;;;6.93;5.60;;;28.90;99.90;;;;;;5054142;28;20287;-79
2022/06/29 19:00:45;;;;;;;6.22;5.70;;;28.60;99.90;;;;;;5054234;28;20285;-79
2022/06/29 19:03:11;;;;;;;6.85;6.05;;;28.50;99.90;;;;;;5054202;28;20161;-79
2022/06/29 19:05:37;;;;;;;6.95;5.60;;;28.40;99.90;;;;;;5054163;28;20524;-79
2022/06/29 19:08:03;;;;;;;6.28;5.88;;;28.20;99.90;;;;;;5053974;28;20266;-79
2022/06/29 19:10:28;;;;;;;6.63;6.13;;;28.10;99.90;;;;;;5054033;28;20165;-79
2022/06/29 19:12:54;;;;;;;6.53;5.90;;;27.90;99.90;;;;;;5053981;28;20226;-79
2022/06/29 19:15:20;;;;;;;6.85;6.25;;;27.70;99.90;;;;;;5053938;28;20183;-79
2022/06/29 19:17:46;;;;;;;7.93;5.97;;;27.40;99.90;;;;;;5053892;28;20196;-79
2022/06/29 19:20:11;;;;;;;6.88;6.10;;;27.00;99.90;;;;;;5053868;28;20195;-79
2022/06/29 19:22:38;;;;;;;6.22;5.72;;;26.70;99.90;;;;;;5053836;28;20164;-79
2022/06/29 19:25:04;;;;;;;7.78;6.07;;;26.40;99.90;;;;;;5053786;28;20247;-79
2022/06/29 19:27:30;;;;;;;6.95;6.38;;;26.20;99.90;;;;;;5052390;28;20716;-79
2022/06/29 19:29:55;;;;;;;7.25;6.65;;;26.00;99.90;;;;;;5052434;28;20176;-79
